Terminal Aerodrome Forecast
Issued by NWS

Home | Current Version | Previous Version | Text Only | Print | Product List | Glossary On
Versions: 1 2 3 4 5 6 7 8 9 10 11 12 13
319
FTUS43 KEAX 201721
TAFSTJ
TAF
KSTJ 201721Z 2018/2118 01013KT P6SM FEW200
     FM210100 03009KT P6SM SCT250
     FM211200 03011KT P6SM OVC150=

USA.gov is the U.S. government's official web portal to all federal, state and local government web resources and services.